createdAt,value
2018-09-11T00:00:30.548Z,3.80
2018-09-11T00:02:58.599Z,3.40
2018-09-11T00:05:26.697Z,3.50
2018-09-11T00:07:54.788Z,2.90
2018-09-11T00:10:22.876Z,3.87
2018-09-11T00:12:51.016Z,3.70
2018-09-11T00:15:19.155Z,3.90
2018-09-11T00:17:47.216Z,3.80
2018-09-11T00:20:15.316Z,3.47
2018-09-11T00:22:43.411Z,4.00
2018-09-11T00:25:11.495Z,3.40
2018-09-11T00:27:39.648Z,4.63
2018-09-11T00:30:07.835Z,4.40
2018-09-11T00:32:35.929Z,4.30
2018-09-11T00:35:04.013Z,4.40
2018-09-11T00:37:32.080Z,3.77
2018-09-11T00:40:00.159Z,4.43
2018-09-11T00:42:28.232Z,4.27
2018-09-11T00:44:56.344Z,4.23
2018-09-11T00:47:24.438Z,3.80
2018-09-11T00:49:59.176Z,3.87
2018-09-11T00:52:27.236Z,3.90
2018-09-11T00:54:55.326Z,4.13
2018-09-11T00:57:23.396Z,4.40
2018-09-11T00:59:51.487Z,4.20
2018-09-11T01:02:19.607Z,3.73
2018-09-11T01:04:47.699Z,4.40
2018-09-11T01:07:15.803Z,4.30
2018-09-11T01:09:43.893Z,4.27
2018-09-11T01:12:12.034Z,4.40
2018-09-11T01:14:40.223Z,4.30
2018-09-11T01:17:08.304Z,3.70
2018-09-11T01:19:36.411Z,4.17
2018-09-11T01:22:04.482Z,3.60
2018-09-11T01:24:32.649Z,4.87
2018-09-11T01:27:00.720Z,3.53
2018-09-11T01:29:28.815Z,4.30
2018-09-11T01:31:56.890Z,4.20
2018-09-11T01:34:25.036Z,3.77
2018-09-11T01:36:53.164Z,4.40
2018-09-11T01:39:21.328Z,4.30
2018-09-11T01:41:49.419Z,4.20
2018-09-11T01:44:17.559Z,4.43
2018-09-11T01:46:45.691Z,4.03
2018-09-11T01:49:13.784Z,4.50
2018-09-11T01:51:41.861Z,4.23
2018-09-11T01:54:09.918Z,4.33
2018-09-11T01:56:37.987Z,4.00
2018-09-11T01:59:06.353Z,4.97
2018-09-11T02:01:34.456Z,4.67
2018-09-11T02:04:02.547Z,5.00
2018-09-11T02:06:30.627Z,4.63
2018-09-11T02:08:58.688Z,4.33
2018-09-11T02:11:26.823Z,4.50
2018-09-11T02:13:54.894Z,3.93
2018-09-11T02:16:22.963Z,3.87
2018-09-11T02:18:51.099Z,4.10
2018-09-11T02:21:19.186Z,4.57
2018-09-11T02:23:47.285Z,4.70
2018-09-11T02:26:15.594Z,4.60
2018-09-11T02:28:43.684Z,4.60
2018-09-11T02:31:11.811Z,4.40
2018-09-11T02:33:39.962Z,4.80
2018-09-11T02:36:08.046Z,4.43
2018-09-11T02:38:36.141Z,3.80
2018-09-11T02:41:04.224Z,4.50
2018-09-11T02:43:32.336Z,4.13
2018-09-11T02:46:00.415Z,4.30
2018-09-11T02:48:28.507Z,4.20
2018-09-11T02:50:56.593Z,4.57
2018-09-11T02:53:24.715Z,5.23
2018-09-11T02:55:52.788Z,4.80
2018-09-11T02:58:20.871Z,5.53
2018-09-11T03:00:48.965Z,4.63
2018-09-11T03:03:17.038Z,5.17
2018-09-11T03:05:45.136Z,5.03
2018-09-11T03:08:13.184Z,4.87
2018-09-11T03:10:41.267Z,5.40
2018-09-11T03:13:09.342Z,5.07
2018-09-11T03:15:37.413Z,4.40
2018-09-11T03:18:05.479Z,5.47
2018-09-11T03:20:33.559Z,4.83
2018-09-11T03:23:01.672Z,5.03
2018-09-11T03:25:29.789Z,5.20
2018-09-11T03:27:57.863Z,4.67
2018-09-11T03:30:25.967Z,5.10
2018-09-11T03:32:54.100Z,5.80
2018-09-11T03:35:22.225Z,4.97
2018-09-11T03:37:50.322Z,5.00
2018-09-11T03:40:18.445Z,5.17
2018-09-11T03:42:46.595Z,5.07
2018-09-11T03:45:14.700Z,4.87
2018-09-11T03:47:42.947Z,5.37
2018-09-11T03:50:11.024Z,5.30
2018-09-11T03:52:39.243Z,5.17
2018-09-11T03:55:07.411Z,4.93
2018-09-11T03:57:35.501Z,5.40
2018-09-11T04:00:03.724Z,6.10
2018-09-11T04:02:31.846Z,5.40
2018-09-11T04:04:59.932Z,6.20
2018-09-11T04:07:27.996Z,6.23
2018-09-11T04:09:56.097Z,6.07
2018-09-11T04:12:24.205Z,5.93
2018-09-11T04:14:52.302Z,5.80
2018-09-11T04:17:20.413Z,5.10
2018-09-11T04:19:48.491Z,6.43
2018-09-11T04:22:16.569Z,6.07
2018-09-11T04:24:44.636Z,6.23
2018-09-11T04:27:12.764Z,8.57
2018-09-11T04:29:40.861Z,6.37
2018-09-11T04:32:08.936Z,6.10
2018-09-11T04:34:37.019Z,7.00
2018-09-11T04:37:05.477Z,5.80
2018-09-11T04:39:33.546Z,6.20
2018-09-11T04:42:01.643Z,5.80
2018-09-11T04:44:29.729Z,6.20
2018-09-11T04:46:57.824Z,5.90
2018-09-11T04:49:25.957Z,5.97
2018-09-11T04:51:54.071Z,6.10
2018-09-11T04:54:22.209Z,7.10
2018-09-11T04:56:50.267Z,6.70
2018-09-11T04:59:18.356Z,7.40
2018-09-11T05:01:46.475Z,7.40
2018-09-11T05:04:14.540Z,6.30
2018-09-11T05:06:42.649Z,6.80
2018-09-11T05:09:11.533Z,6.30
2018-09-11T05:11:39.741Z,7.13
2018-09-11T05:14:08.146Z,8.30
2018-09-11T05:16:36.234Z,7.93
2018-09-11T05:19:04.372Z,7.40
2018-09-11T05:21:32.420Z,7.07
2018-09-11T05:24:00.499Z,7.37
2018-09-11T05:26:28.628Z,7.00
2018-09-11T05:28:56.743Z,7.83
2018-09-11T05:31:24.827Z,7.77
2018-09-11T05:33:52.899Z,8.17
2018-09-11T05:36:21.137Z,6.90
2018-09-11T05:38:49.309Z,7.80
2018-09-11T05:41:17.662Z,7.30
2018-09-11T05:43:45.723Z,6.10
2018-09-11T05:46:13.821Z,7.37
2018-09-11T05:48:41.902Z,8.03
2018-09-11T05:51:09.997Z,7.73
2018-09-11T05:53:38.063Z,6.80
2018-09-11T05:56:06.474Z,6.50
2018-09-11T05:58:34.560Z,7.50
2018-09-11T06:01:02.632Z,6.70
2018-09-11T06:03:30.710Z,7.50
2018-09-11T06:05:58.835Z,6.80
2018-09-11T06:08:26.923Z,6.47
2018-09-11T06:10:55.009Z,7.70
2018-09-11T06:13:23.175Z,6.30
2018-09-11T06:15:51.279Z,7.00
2018-09-11T06:18:19.415Z,6.57
2018-09-11T06:20:47.474Z,5.90
2018-09-11T06:23:15.547Z,7.03
2018-09-11T06:25:43.642Z,6.50
2018-09-11T06:28:11.699Z,7.53
2018-09-11T06:30:39.840Z,7.10
2018-09-11T06:33:07.931Z,6.97
2018-09-11T06:35:36.067Z,7.90
2018-09-11T06:38:04.091Z,8.37
2018-09-11T06:40:32.167Z,7.40
2018-09-11T06:43:00.250Z,7.57
2018-09-11T06:45:28.325Z,6.93
2018-09-11T06:47:56.405Z,8.50
2018-09-11T06:50:24.496Z,8.30
2018-09-11T06:52:52.591Z,8.07
2018-09-11T06:55:20.755Z,7.50
2018-09-11T06:57:48.924Z,8.97
2018-09-11T07:00:17.144Z,7.67
2018-09-11T07:02:45.286Z,6.43
2018-09-11T07:05:13.356Z,6.60
2018-09-11T07:07:41.435Z,6.90
2018-09-11T07:10:09.500Z,6.47
2018-09-11T07:12:37.787Z,6.77
2018-09-11T07:15:05.859Z,6.30
2018-09-11T07:17:33.937Z,6.67
2018-09-11T07:20:02.189Z,6.70
2018-09-11T07:22:30.124Z,6.70
2018-09-11T07:24:58.202Z,7.33
2018-09-11T07:27:26.299Z,6.10
2018-09-11T07:29:54.366Z,6.03
2018-09-11T07:32:22.477Z,5.60
2018-09-11T07:34:50.555Z,5.47
2018-09-11T07:37:18.685Z,7.07
2018-09-11T07:39:46.803Z,4.33
2018-09-11T07:42:15.040Z,4.17
2018-09-11T07:44:43.103Z,4.40
2018-09-11T07:47:11.188Z,3.57
2018-09-11T07:49:39.429Z,4.13
2018-09-11T07:52:07.760Z,5.20
2018-09-11T07:54:35.840Z,4.03
2018-09-11T07:57:03.926Z,4.00
2018-09-11T07:59:31.998Z,3.07
2018-09-11T08:02:00.092Z,3.57
2018-09-11T08:04:28.176Z,3.00
2018-09-11T08:06:56.267Z,3.87
2018-09-11T08:09:24.359Z,3.53
2018-09-11T08:11:52.439Z,2.73
2018-09-11T08:14:20.495Z,2.67
2018-09-11T08:16:48.582Z,3.17
2018-09-11T08:19:16.712Z,3.10
2018-09-11T08:21:44.891Z,3.30
2018-09-11T08:24:12.935Z,3.50
2018-09-11T08:26:41.032Z,2.70
2018-09-11T08:29:09.136Z,2.23
2018-09-11T08:31:37.182Z,3.00
2018-09-11T08:34:05.251Z,2.73
2018-09-11T08:36:33.331Z,2.67
2018-09-11T08:39:01.411Z,3.00
2018-09-11T08:41:29.559Z,2.87
2018-09-11T08:43:57.643Z,2.93
2018-09-11T08:46:25.708Z,2.97
2018-09-11T08:48:53.799Z,2.40
2018-09-11T08:51:21.867Z,2.20
2018-09-11T08:53:49.939Z,2.43
2018-09-11T08:56:18.014Z,2.10
2018-09-11T08:58:46.095Z,2.23
2018-09-11T09:01:14.196Z,2.43
2018-09-11T09:03:42.276Z,2.57
2018-09-11T09:06:10.385Z,2.07
2018-09-11T09:08:38.505Z,2.63
2018-09-11T09:11:06.623Z,2.30
2018-09-11T09:13:34.704Z,2.40
2018-09-11T09:16:02.763Z,2.27
2018-09-11T09:18:30.839Z,2.20
2018-09-11T09:20:58.994Z,2.60
2018-09-11T09:23:27.012Z,2.10
2018-09-11T09:25:55.100Z,1.90
2018-09-11T09:28:23.174Z,3.00
2018-09-11T09:30:57.911Z,2.40
2018-09-11T09:33:26.032Z,2.40
2018-09-11T09:35:54.103Z,2.13
2018-09-11T09:38:22.238Z,2.17
2018-09-11T09:40:50.311Z,2.00
2018-09-11T09:43:18.381Z,2.40
2018-09-11T09:45:46.484Z,2.10
2018-09-11T09:48:14.577Z,2.37
2018-09-11T09:50:42.719Z,3.17
2018-09-11T09:53:10.764Z,2.70
2018-09-11T09:55:38.836Z,2.70
2018-09-11T09:58:07.033Z,2.13
2018-09-11T10:00:40.488Z,2.30
2018-09-11T10:03:08.573Z,2.47
2018-09-11T10:05:36.655Z,1.97
2018-09-11T10:08:04.798Z,2.10
2018-09-11T10:10:32.925Z,2.47
2018-09-11T10:13:01.009Z,2.10
2018-09-11T10:15:29.080Z,2.67
2018-09-11T10:17:57.133Z,2.13
2018-09-11T10:20:25.267Z,1.57
2018-09-11T10:22:53.396Z,1.87
2018-09-11T10:25:21.480Z,1.80
2018-09-11T10:27:49.560Z,1.70
2018-09-11T10:30:17.652Z,2.13
2018-09-11T10:32:45.724Z,1.80
2018-09-11T10:35:13.801Z,1.60
2018-09-11T10:37:41.876Z,1.63
2018-09-11T10:40:09.976Z,1.40
2018-09-11T10:42:38.039Z,1.57
2018-09-11T10:45:06.293Z,1.83
2018-09-11T10:47:34.283Z,2.20
2018-09-11T10:50:02.360Z,1.40
2018-09-11T10:52:30.420Z,1.73
2018-09-11T10:54:58.497Z,1.80
2018-09-11T10:57:26.620Z,1.97
2018-09-11T10:59:54.712Z,1.93
2018-09-11T11:02:22.779Z,1.70
2018-09-11T11:04:53.847Z,1.80
2018-09-11T11:07:21.950Z,1.77
2018-09-11T11:09:50.051Z,1.43
2018-09-11T11:12:18.138Z,2.13
2018-09-11T11:14:46.222Z,1.47
2018-09-11T11:17:14.363Z,1.97
2018-09-11T11:19:42.381Z,2.50
2018-09-11T11:22:10.447Z,1.50
2018-09-11T11:24:38.568Z,1.53
2018-09-11T11:27:06.741Z,1.53
2018-09-11T11:29:34.705Z,1.37
2018-09-11T11:32:02.782Z,1.57
2018-09-11T11:34:30.883Z,2.13
2018-09-11T11:36:59.113Z,1.33
2018-09-11T11:39:27.101Z,1.57
2018-09-11T11:41:55.202Z,1.40
2018-09-11T11:44:23.270Z,2.07
2018-09-11T11:46:51.325Z,1.80
2018-09-11T11:49:19.409Z,1.50
2018-09-11T11:51:47.480Z,1.80
2018-09-11T11:54:15.576Z,1.27
2018-09-11T11:56:43.630Z,1.40
2018-09-11T11:59:11.706Z,1.67
2018-09-11T12:01:39.882Z,1.60
2018-09-11T12:04:08.036Z,1.63
2018-09-11T12:06:36.124Z,1.97
2018-09-11T12:09:06.086Z,1.50
2018-09-11T12:11:34.160Z,1.77
2018-09-11T12:14:02.237Z,1.40
2018-09-11T12:16:30.310Z,1.53
2018-09-11T12:18:58.388Z,1.50
2018-09-11T12:21:26.548Z,1.70
2018-09-11T12:23:54.656Z,1.77
2018-09-11T12:26:22.876Z,1.53
2018-09-11T12:28:50.915Z,1.80
2018-09-11T12:31:19.154Z,1.50
2018-09-11T12:33:47.225Z,1.50
2018-09-11T12:36:15.397Z,1.87
2018-09-11T12:38:43.469Z,1.50
2018-09-11T12:41:11.564Z,1.50
2018-09-11T12:43:39.641Z,1.97
2018-09-11T12:46:07.967Z,1.87
2018-09-11T12:48:35.936Z,1.70
2018-09-11T12:51:03.910Z,2.37
2018-09-11T12:53:32.013Z,1.70
2018-09-11T12:56:00.096Z,1.60
2018-09-11T12:58:28.211Z,1.70
2018-09-11T13:00:56.307Z,1.10
2018-09-11T13:03:24.380Z,1.60
2018-09-11T13:05:52.469Z,1.50
2018-09-11T13:08:20.544Z,1.67
2018-09-11T13:10:48.666Z,2.37
2018-09-11T13:13:16.734Z,1.50
2018-09-11T13:15:44.895Z,1.70
2018-09-11T13:18:12.996Z,1.80
2018-09-11T13:20:41.146Z,1.53
2018-09-11T13:23:09.328Z,1.80
2018-09-11T13:25:37.435Z,1.37
2018-09-11T13:28:05.623Z,1.50
2018-09-11T13:30:33.721Z,2.03
2018-09-11T13:33:01.875Z,1.57
2018-09-11T13:35:29.985Z,1.90
2018-09-11T13:37:58.273Z,2.13
2018-09-11T13:40:26.415Z,2.30
2018-09-11T13:42:54.605Z,1.90
2018-09-11T13:45:22.691Z,2.23
2018-09-11T13:47:50.816Z,1.60
2018-09-11T13:50:18.908Z,1.67
2018-09-11T13:52:47.036Z,2.00
2018-09-11T13:55:15.138Z,2.30
2018-09-11T13:57:43.213Z,1.30
2018-09-11T14:00:11.371Z,1.47
2018-09-11T14:02:39.904Z,1.27
2018-09-11T14:05:08.024Z,1.63
2018-09-11T14:07:36.121Z,2.17
2018-09-11T14:10:04.545Z,1.60
2018-09-11T14:12:32.639Z,1.73
2018-09-11T14:15:00.733Z,1.67
2018-09-11T14:17:28.864Z,1.90
2018-09-11T14:19:56.956Z,2.10
2018-09-11T14:22:25.039Z,2.47
2018-09-11T14:24:53.189Z,1.70
2018-09-11T14:27:21.287Z,1.77
2018-09-11T14:29:49.361Z,1.80
2018-09-11T14:32:17.517Z,2.60
2018-09-11T14:34:45.636Z,2.10
2018-09-11T14:37:13.729Z,1.80
2018-09-11T14:39:42.126Z,1.83
2018-09-11T14:42:10.223Z,1.63
2018-09-11T14:44:38.286Z,2.63
2018-09-11T14:47:06.387Z,1.97
2018-09-11T14:49:34.456Z,2.53
2018-09-11T14:52:02.566Z,1.70
2018-09-11T14:54:30.660Z,1.80
2018-09-11T14:56:58.765Z,1.90
2018-09-11T14:59:26.864Z,1.63
2018-09-11T15:01:54.948Z,1.93
2018-09-11T15:04:23.253Z,1.50
2018-09-11T15:06:51.162Z,2.03
2018-09-11T15:09:19.249Z,1.90
2018-09-11T15:11:47.374Z,1.60
2018-09-11T15:14:15.490Z,1.87
2018-09-11T15:16:43.593Z,1.83
2018-09-11T15:19:11.671Z,2.10
2018-09-11T15:21:39.761Z,2.00
2018-09-11T15:24:07.999Z,1.27
2018-09-11T15:26:36.088Z,2.30
2018-09-11T15:29:04.268Z,1.73
2018-09-11T15:31:32.349Z,1.73
2018-09-11T15:34:00.437Z,2.13
2018-09-11T15:36:28.549Z,2.00
2018-09-11T15:38:56.659Z,1.90
2018-09-11T15:41:24.750Z,2.33
2018-09-11T15:43:52.901Z,1.80
2018-09-11T15:46:21.054Z,1.80
2018-09-11T15:48:49.137Z,2.20
2018-09-11T15:51:17.247Z,1.77
2018-09-11T15:53:45.336Z,1.93
2018-09-11T15:56:13.412Z,1.90
2018-09-11T15:58:41.539Z,2.10
2018-09-11T16:01:09.637Z,1.83
2018-09-11T16:03:37.757Z,1.30
2018-09-11T16:06:05.874Z,1.90
2018-09-11T16:08:33.940Z,1.90
2018-09-11T16:11:02.044Z,1.93
2018-09-11T16:13:30.109Z,2.07
2018-09-11T16:15:58.211Z,2.20
2018-09-11T16:18:26.313Z,1.80
2018-09-11T16:20:54.424Z,2.30
2018-09-11T16:23:22.526Z,2.10
2018-09-11T16:25:50.603Z,2.07
2018-09-11T16:28:18.830Z,1.90
2018-09-11T16:30:46.916Z,2.13
2018-09-11T16:33:15.128Z,2.60
2018-09-11T16:35:43.275Z,2.17
2018-09-11T16:38:11.371Z,2.20
2018-09-11T16:40:39.515Z,2.30
2018-09-11T16:43:07.664Z,2.30
2018-09-11T16:45:35.732Z,2.30
2018-09-11T16:48:03.897Z,2.13
2018-09-11T16:50:31.975Z,2.40
2018-09-11T16:53:00.123Z,2.00
2018-09-11T16:55:28.210Z,2.40
2018-09-11T16:57:56.288Z,2.07
2018-09-11T17:00:24.359Z,2.10
2018-09-11T17:02:52.460Z,1.97
2018-09-11T17:05:20.665Z,1.83
2018-09-11T17:07:48.768Z,1.60
2018-09-11T17:10:16.839Z,2.23
2018-09-11T17:12:45.411Z,1.90
2018-09-11T17:15:13.507Z,1.83
2018-09-11T17:17:41.593Z,1.90
2018-09-11T17:20:09.703Z,2.23
2018-09-11T17:22:37.749Z,2.43
2018-09-11T17:25:05.818Z,1.97
2018-09-11T17:27:33.934Z,2.17
2018-09-11T17:30:02.043Z,2.47
2018-09-11T17:32:30.119Z,1.77
2018-09-11T17:34:59.051Z,2.00
2018-09-11T17:37:27.129Z,2.30
2018-09-11T17:39:55.212Z,1.90
2018-09-11T17:42:23.303Z,2.00
2018-09-11T17:44:51.408Z,2.50
2018-09-11T17:47:19.578Z,3.93
2018-09-11T17:49:47.704Z,2.40
2018-09-11T17:52:15.799Z,1.77
2018-09-11T17:54:43.887Z,2.50
2018-09-11T17:57:11.973Z,2.13
2018-09-11T17:59:40.043Z,1.97
2018-09-11T18:02:08.172Z,1.73
2018-09-11T18:04:36.245Z,2.00
2018-09-11T18:07:04.376Z,2.10
2018-09-11T18:09:32.451Z,1.73
2018-09-11T18:12:00.622Z,2.50
2018-09-11T18:14:28.719Z,2.50
2018-09-11T18:16:56.781Z,1.87
2018-09-11T18:19:24.843Z,2.60
2018-09-11T18:21:52.912Z,1.37
2018-09-11T18:24:21.001Z,2.40
2018-09-11T18:26:49.107Z,2.20
2018-09-11T18:29:17.195Z,2.00
2018-09-11T18:31:45.267Z,1.90
2018-09-11T18:34:13.492Z,2.27
2018-09-11T18:36:41.776Z,2.10
2018-09-11T18:39:10.817Z,2.20
2018-09-11T18:41:38.984Z,2.50
2018-09-11T18:44:07.245Z,2.57
2018-09-11T18:46:35.518Z,1.93
2018-09-11T18:49:03.705Z,2.67
2018-09-11T18:51:32.052Z,2.20
2018-09-11T18:54:01.524Z,2.63
2018-09-11T18:56:29.824Z,2.93
2018-09-11T18:58:58.010Z,2.60
2018-09-11T19:01:26.206Z,2.93
2018-09-11T19:04:00.651Z,2.97
2018-09-11T19:06:29.466Z,2.57
2018-09-11T19:08:57.776Z,2.63
2018-09-11T19:11:30.021Z,2.17
2018-09-11T19:13:59.017Z,2.50
2018-09-11T19:16:27.203Z,2.50
2018-09-11T19:18:55.495Z,2.47
2018-09-11T19:21:23.827Z,2.50
2018-09-11T19:23:52.039Z,2.77
2018-09-11T19:26:20.224Z,2.70
2018-09-11T19:28:48.424Z,2.60
2018-09-11T19:31:16.657Z,2.37
2018-09-11T19:33:46.178Z,3.47
2018-09-11T19:36:14.351Z,4.00
2018-09-11T19:38:43.207Z,2.97
2018-09-11T19:41:11.432Z,4.23
2018-09-11T19:43:39.565Z,3.60
2018-09-11T19:46:07.789Z,2.83
2018-09-11T19:48:35.985Z,3.23
2018-09-11T19:51:04.189Z,2.50
2018-09-11T19:53:32.531Z,3.20
2018-09-11T19:56:00.650Z,3.10
2018-09-11T19:58:29.147Z,2.37
2018-09-11T20:00:57.416Z,2.80
2018-09-11T20:03:25.852Z,2.70
2018-09-11T20:05:54.149Z,2.73
2018-09-11T20:08:22.680Z,2.87
2018-09-11T20:10:57.812Z,2.40
2018-09-11T20:13:27.333Z,2.50
2018-09-11T20:15:55.515Z,2.27
2018-09-11T20:18:24.224Z,2.80
2018-09-11T20:20:52.875Z,3.10
2018-09-11T20:23:21.116Z,2.60
2018-09-11T20:25:49.275Z,2.30
2018-09-11T20:28:17.486Z,2.30
2018-09-11T20:30:46.572Z,2.47
2018-09-11T20:33:15.361Z,2.23
2018-09-11T20:35:43.610Z,3.10
2018-09-11T20:38:12.199Z,3.03
2018-09-11T20:40:40.419Z,3.17
2018-09-11T20:43:08.624Z,2.17
2018-09-11T20:45:36.868Z,2.67
2018-09-11T20:48:05.004Z,2.77
2018-09-11T20:50:33.163Z,1.87
2018-09-11T20:53:03.001Z,2.73
2018-09-11T20:55:31.261Z,2.67
2018-09-11T20:57:59.879Z,2.67
2018-09-11T21:00:29.811Z,2.80
2018-09-11T21:02:58.596Z,2.30
2018-09-11T21:05:27.133Z,2.40
2018-09-11T21:07:55.286Z,2.70
2018-09-11T21:10:23.545Z,2.40
2018-09-11T21:12:51.709Z,2.50
2018-09-11T21:15:20.785Z,2.30
2018-09-11T21:17:49.000Z,2.40
2018-09-11T21:20:17.264Z,2.57
2018-09-11T21:22:46.133Z,2.63
2018-09-11T21:25:14.291Z,2.67
2018-09-11T21:27:43.757Z,2.47
2018-09-11T21:30:11.979Z,2.40
2018-09-11T21:32:40.759Z,3.20
2018-09-11T21:35:09.158Z,2.53
2018-09-11T21:37:38.557Z,2.67
2018-09-11T21:40:06.744Z,2.57
2018-09-11T21:42:34.971Z,2.40
2018-09-11T21:45:03.225Z,2.30
2018-09-11T21:47:32.390Z,2.43
2018-09-11T21:50:01.556Z,2.90
2018-09-11T21:52:30.030Z,3.77
2018-09-11T21:54:58.825Z,2.60
2018-09-11T21:57:27.850Z,3.00
2018-09-11T21:59:56.034Z,2.87
2018-09-11T22:02:24.257Z,3.37
2018-09-11T22:04:52.419Z,2.83
2018-09-11T22:07:20.608Z,2.53
2018-09-11T22:09:48.744Z,3.00
2018-09-11T22:12:17.069Z,2.60
2018-09-11T22:14:45.345Z,2.33
2018-09-11T22:17:13.884Z,2.30
2018-09-11T22:19:42.094Z,2.90
2018-09-11T22:22:10.450Z,3.10
2018-09-11T22:24:38.815Z,2.70
2018-09-11T22:27:06.990Z,2.67
2018-09-11T22:29:35.310Z,2.33
2018-09-11T22:32:03.488Z,2.90
2018-09-11T22:34:31.731Z,2.60
2018-09-11T22:36:59.997Z,2.43
2018-09-11T22:39:28.209Z,2.30
2018-09-11T22:41:56.365Z,2.30
2018-09-11T22:44:24.547Z,3.30
2018-09-11T22:46:52.821Z,2.93
2018-09-11T22:49:21.898Z,2.70
2018-09-11T22:51:50.088Z,2.60
2018-09-11T22:54:20.420Z,2.80
2018-09-11T22:56:55.262Z,2.73
2018-09-11T22:59:23.491Z,3.27
2018-09-11T23:01:53.159Z,3.17
2018-09-11T23:04:21.550Z,2.93
2018-09-11T23:06:49.730Z,2.67
2018-09-11T23:09:17.910Z,2.60
2018-09-11T23:11:46.176Z,2.33
2018-09-11T23:14:14.685Z,2.53
2018-09-11T23:16:42.880Z,2.70
2018-09-11T23:19:11.926Z,3.70
2018-09-11T23:21:40.110Z,2.33
2018-09-11T23:24:08.163Z,2.70
2018-09-11T23:26:36.410Z,3.10
2018-09-11T23:29:04.816Z,2.87
2018-09-11T23:31:32.882Z,2.77
2018-09-11T23:34:00.949Z,3.03
2018-09-11T23:36:29.024Z,2.53
2018-09-11T23:38:57.084Z,2.83
2018-09-11T23:41:25.165Z,2.80
2018-09-11T23:43:53.218Z,2.77
2018-09-11T23:46:21.299Z,2.47
2018-09-11T23:48:49.415Z,2.83
2018-09-11T23:51:17.539Z,2.10
2018-09-11T23:53:45.614Z,2.63
2018-09-11T23:56:13.692Z,2.83
2018-09-11T23:58:41.773Z,2.50
